sensor_id;sensor_type;location;lat;lon;timestamp;P1;durP1;ratioP1;P2;durP2;ratioP2
4636;SDS011;2331;48.806;9.140;2024-02-23T00:01:50;1.05;;;0.50;;
4636;SDS011;2331;48.806;9.140;2024-02-23T00:04:16;1.50;;;0.60;;
4636;SDS011;2331;48.806;9.140;2024-02-23T00:06:45;1.83;;;0.68;;
4636;SDS011;2331;48.806;9.140;2024-02-23T00:09:12;1.83;;;0.70;;
4636;SDS011;2331;48.806;9.140;2024-02-23T00:11:39;2.00;;;0.60;;
4636;SDS011;2331;48.806;9.140;2024-02-23T00:14:09;1.45;;;0.60;;
4636;SDS011;2331;48.806;9.140;2024-02-23T00:16:37;1.60;;;0.50;;
4636;SDS011;2331;48.806;9.140;2024-02-23T00:19:04;0.95;;;0.60;;
4636;SDS011;2331;48.806;9.140;2024-02-23T00:21:32;1.55;;;0.50;;
4636;SDS011;2331;48.806;9.140;2024-02-23T00:24:00;0.90;;;0.60;;
4636;SDS011;2331;48.806;9.140;2024-02-23T00:26:26;1.83;;;0.70;;
4636;SDS011;2331;48.806;9.140;2024-02-23T00:28:54;1.80;;;0.73;;
4636;SDS011;2331;48.806;9.140;2024-02-23T00:31:20;1.08;;;0.50;;
4636;SDS011;2331;48.806;9.140;2024-02-23T00:33:47;3.42;;;0.80;;
4636;SDS011;2331;48.806;9.140;2024-02-23T00:36:14;2.17;;;0.75;;
4636;SDS011;2331;48.806;9.140;2024-02-23T00:38:40;2.90;;;0.60;;
4636;SDS011;2331;48.806;9.140;2024-02-23T00:41:09;1.60;;;0.70;;
4636;SDS011;2331;48.806;9.140;2024-02-23T00:43:39;2.15;;;1.00;;
4636;SDS011;2331;48.806;9.140;2024-02-23T00:46:06;1.55;;;0.65;;
4636;SDS011;2331;48.806;9.140;2024-02-23T00:48:33;2.33;;;0.90;;
4636;SDS011;2331;48.806;9.140;2024-02-23T00:51:01;3.15;;;0.90;;
4636;SDS011;2331;48.806;9.140;2024-02-23T00:53:28;1.42;;;0.80;;
4636;SDS011;2331;48.806;9.140;2024-02-23T00:55:56;4.10;;;0.88;;
4636;SDS011;2331;48.806;9.140;2024-02-23T00:58:24;2.30;;;1.10;;
4636;SDS011;2331;48.806;9.140;2024-02-23T01:00:51;2.95;;;0.88;;
4636;SDS011;2331;48.806;9.140;2024-02-23T01:03:18;1.50;;;0.80;;
4636;SDS011;2331;48.806;9.140;2024-02-23T01:05:44;1.80;;;0.65;;
4636;SDS011;2331;48.806;9.140;2024-02-23T01:08:11;4.03;;;0.98;;
4636;SDS011;2331;48.806;9.140;2024-02-23T01:10:38;2.20;;;0.88;;
4636;SDS011;2331;48.806;9.140;2024-02-23T01:13:04;1.77;;;0.70;;
4636;SDS011;2331;48.806;9.140;2024-02-23T01:15:32;3.45;;;0.82;;
4636;SDS011;2331;48.806;9.140;2024-02-23T01:17:59;2.08;;;0.75;;
4636;SDS011;2331;48.806;9.140;2024-02-23T01:20:26;5.07;;;0.75;;
4636;SDS011;2331;48.806;9.140;2024-02-23T01:22:53;3.85;;;0.73;;
4636;SDS011;2331;48.806;9.140;2024-02-23T01:25:19;5.22;;;0.90;;
4636;SDS011;2331;48.806;9.140;2024-02-23T01:27:46;1.40;;;0.60;;
4636;SDS011;2331;48.806;9.140;2024-02-23T01:30:13;1.50;;;0.70;;
4636;SDS011;2331;48.806;9.140;2024-02-23T01:32:41;4.10;;;1.15;;
4636;SDS011;2331;48.806;9.140;2024-02-23T01:35:08;5.13;;;1.88;;
4636;SDS011;2331;48.806;9.140;2024-02-23T01:37:35;2.38;;;1.00;;
4636;SDS011;2331;48.806;9.140;2024-02-23T01:40:02;1.73;;;0.70;;
4636;SDS011;2331;48.806;9.140;2024-02-23T01:42:29;2.35;;;0.80;;
4636;SDS011;2331;48.806;9.140;2024-02-23T01:44:55;1.65;;;0.90;;
4636;SDS011;2331;48.806;9.140;2024-02-23T01:47:22;1.92;;;0.82;;
4636;SDS011;2331;48.806;9.140;2024-02-23T01:49:51;3.38;;;1.00;;
4636;SDS011;2331;48.806;9.140;2024-02-23T01:52:18;1.75;;;1.10;;
4636;SDS011;2331;48.806;9.140;2024-02-23T01:54:46;2.40;;;0.82;;
4636;SDS011;2331;48.806;9.140;2024-02-23T01:57:12;1.80;;;0.60;;
4636;SDS011;2331;48.806;9.140;2024-02-23T01:59:41;1.88;;;0.98;;
4636;SDS011;2331;48.806;9.140;2024-02-23T02:02:08;2.78;;;0.80;;
4636;SDS011;2331;48.806;9.140;2024-02-23T02:04:34;3.15;;;0.82;;
4636;SDS011;2331;48.806;9.140;2024-02-23T02:07:03;2.13;;;0.80;;
4636;SDS011;2331;48.806;9.140;2024-02-23T02:09:31;3.63;;;0.80;;
4636;SDS011;2331;48.806;9.140;2024-02-23T02:11:58;1.70;;;0.70;;
4636;SDS011;2331;48.806;9.140;2024-02-23T02:14:24;4.88;;;0.80;;
4636;SDS011;2331;48.806;9.140;2024-02-23T02:16:53;1.60;;;0.80;;
4636;SDS011;2331;48.806;9.140;2024-02-23T02:19:19;1.23;;;0.60;;
4636;SDS011;2331;48.806;9.140;2024-02-23T02:21:46;2.05;;;0.80;;
4636;SDS011;2331;48.806;9.140;2024-02-23T02:24:14;1.75;;;0.70;;
4636;SDS011;2331;48.806;9.140;2024-02-23T02:26:41;2.35;;;0.90;;
4636;SDS011;2331;48.806;9.140;2024-02-23T02:29:10;2.15;;;0.95;;
4636;SDS011;2331;48.806;9.140;2024-02-23T02:31:37;1.92;;;0.80;;
4636;SDS011;2331;48.806;9.140;2024-02-23T02:34:03;3.25;;;0.90;;
4636;SDS011;2331;48.806;9.140;2024-02-23T02:36:30;3.25;;;0.95;;
4636;SDS011;2331;48.806;9.140;2024-02-23T02:38:57;1.65;;;0.77;;
4636;SDS011;2331;48.806;9.140;2024-02-23T02:41:25;1.77;;;1.00;;
4636;SDS011;2331;48.806;9.140;2024-02-23T02:43:55;3.70;;;0.90;;
4636;SDS011;2331;48.806;9.140;2024-02-23T02:46:22;3.38;;;0.90;;
4636;SDS011;2331;48.806;9.140;2024-02-23T02:48:48;4.22;;;0.90;;
4636;SDS011;2331;48.806;9.140;2024-02-23T02:51:15;2.45;;;0.82;;
4636;SDS011;2331;48.806;9.140;2024-02-23T02:53:42;1.83;;;0.60;;
4636;SDS011;2331;48.806;9.140;2024-02-23T02:56:08;1.20;;;0.70;;
4636;SDS011;2331;48.806;9.140;2024-02-23T02:58:36;4.97;;;0.80;;
4636;SDS011;2331;48.806;9.140;2024-02-23T03:01:03;1.70;;;0.80;;
4636;SDS011;2331;48.806;9.140;2024-02-23T03:03:30;1.10;;;0.60;;
4636;SDS011;2331;48.806;9.140;2024-02-23T03:05:56;2.65;;;0.90;;
4636;SDS011;2331;48.806;9.140;2024-02-23T03:08:23;1.30;;;0.75;;
4636;SDS011;2331;48.806;9.140;2024-02-23T03:10:50;1.00;;;0.70;;
4636;SDS011;2331;48.806;9.140;2024-02-23T03:13:16;1.92;;;0.93;;
4636;SDS011;2331;48.806;9.140;2024-02-23T03:15:44;2.63;;;0.80;;
4636;SDS011;2331;48.806;9.140;2024-02-23T03:18:11;3.35;;;1.05;;
4636;SDS011;2331;48.806;9.140;2024-02-23T03:20:39;2.00;;;0.75;;
4636;SDS011;2331;48.806;9.140;2024-02-23T03:23:06;1.77;;;0.95;;
4636;SDS011;2331;48.806;9.140;2024-02-23T03:25:33;1.30;;;0.70;;
4636;SDS011;2331;48.806;9.140;2024-02-23T03:28:00;2.85;;;0.95;;
4636;SDS011;2331;48.806;9.140;2024-02-23T03:30:26;1.50;;;0.73;;
4636;SDS011;2331;48.806;9.140;2024-02-23T03:32:54;1.83;;;0.80;;
4636;SDS011;2331;48.806;9.140;2024-02-23T03:35:21;5.07;;;0.80;;
4636;SDS011;2331;48.806;9.140;2024-02-23T03:37:48;3.20;;;1.20;;
4636;SDS011;2331;48.806;9.140;2024-02-23T03:40:14;1.35;;;0.65;;
4636;SDS011;2331;48.806;9.140;2024-02-23T03:42:43;2.38;;;0.70;;
4636;SDS011;2331;48.806;9.140;2024-02-23T03:45:09;1.83;;;0.77;;
4636;SDS011;2331;48.806;9.140;2024-02-23T03:47:36;4.07;;;1.08;;
4636;SDS011;2331;48.806;9.140;2024-02-23T03:50:06;5.30;;;0.90;;
4636;SDS011;2331;48.806;9.140;2024-02-23T03:52:34;2.28;;;0.95;;
4636;SDS011;2331;48.806;9.140;2024-02-23T03:55:00;1.60;;;1.02;;
4636;SDS011;2331;48.806;9.140;2024-02-23T03:57:28;3.15;;;1.20;;
4636;SDS011;2331;48.806;9.140;2024-02-23T03:59:55;4.75;;;1.05;;
4636;SDS011;2331;48.806;9.140;2024-02-23T04:02:23;3.63;;;1.10;;
4636;SDS011;2331;48.806;9.140;2024-02-23T04:04:49;2.13;;;0.70;;
4636;SDS011;2331;48.806;9.140;2024-02-23T04:07:17;3.67;;;0.77;;
4636;SDS011;2331;48.806;9.140;2024-02-23T04:09:44;2.65;;;0.70;;
4636;SDS011;2331;48.806;9.140;2024-02-23T04:12:10;1.45;;;0.90;;
4636;SDS011;2331;48.806;9.140;2024-02-23T04:14:37;3.30;;;0.80;;
4636;SDS011;2331;48.806;9.140;2024-02-23T04:17:05;1.50;;;0.82;;
4636;SDS011;2331;48.806;9.140;2024-02-23T04:19:32;1.10;;;0.70;;
4636;SDS011;2331;48.806;9.140;2024-02-23T04:21:58;1.55;;;0.70;;
4636;SDS011;2331;48.806;9.140;2024-02-23T04:24:26;2.75;;;0.77;;
4636;SDS011;2331;48.806;9.140;2024-02-23T04:26:53;1.33;;;0.70;;
4636;SDS011;2331;48.806;9.140;2024-02-23T04:29:20;2.28;;;0.75;;
4636;SDS011;2331;48.806;9.140;2024-02-23T04:31:46;2.45;;;0.95;;
4636;SDS011;2331;48.806;9.140;2024-02-23T04:34:14;3.30;;;0.85;;
4636;SDS011;2331;48.806;9.140;2024-02-23T04:36:41;3.78;;;1.10;;
4636;SDS011;2331;48.806;9.140;2024-02-23T04:39:08;4.60;;;1.02;;
4636;SDS011;2331;48.806;9.140;2024-02-23T04:41:36;1.92;;;1.00;;
4636;SDS011;2331;48.806;9.140;2024-02-23T04:44:03;2.80;;;1.02;;
4636;SDS011;2331;48.806;9.140;2024-02-23T04:46:30;2.03;;;0.80;;
4636;SDS011;2331;48.806;9.140;2024-02-23T04:48:59;2.70;;;0.80;;
4636;SDS011;2331;48.806;9.140;2024-02-23T04:51:25;3.10;;;0.90;;
4636;SDS011;2331;48.806;9.140;2024-02-23T04:53:52;1.73;;;0.90;;
4636;SDS011;2331;48.806;9.140;2024-02-23T04:56:19;3.55;;;1.08;;
4636;SDS011;2331;48.806;9.140;2024-02-23T04:58:47;2.38;;;0.75;;
4636;SDS011;2331;48.806;9.140;2024-02-23T05:01:14;6.65;;;0.90;;
4636;SDS011;2331;48.806;9.140;2024-02-23T05:03:41;1.33;;;0.80;;
4636;SDS011;2331;48.806;9.140;2024-02-23T05:06:08;2.22;;;0.70;;
4636;SDS011;2331;48.806;9.140;2024-02-23T05:08:34;3.22;;;0.90;;
4636;SDS011;2331;48.806;9.140;2024-02-23T05:11:01;1.80;;;0.70;;
4636;SDS011;2331;48.806;9.140;2024-02-23T05:13:28;1.30;;;0.75;;
4636;SDS011;2331;48.806;9.140;2024-02-23T05:15:56;4.15;;;1.30;;
4636;SDS011;2331;48.806;9.140;2024-02-23T05:18:23;1.60;;;0.80;;
4636;SDS011;2331;48.806;9.140;2024-02-23T05:20:49;1.80;;;0.80;;
4636;SDS011;2331;48.806;9.140;2024-02-23T05:23:16;3.78;;;0.90;;
4636;SDS011;2331;48.806;9.140;2024-02-23T05:25:43;1.42;;;0.90;;
4636;SDS011;2331;48.806;9.140;2024-02-23T05:28:09;2.95;;;0.90;;
4636;SDS011;2331;48.806;9.140;2024-02-23T05:30:36;4.53;;;0.90;;
4636;SDS011;2331;48.806;9.140;2024-02-23T05:33:04;2.08;;;0.90;;
4636;SDS011;2331;48.806;9.140;2024-02-23T05:35:31;2.45;;;0.90;;
4636;SDS011;2331;48.806;9.140;2024-02-23T05:37:57;3.53;;;1.02;;
4636;SDS011;2331;48.806;9.140;2024-02-23T05:40:24;2.80;;;1.10;;
4636;SDS011;2331;48.806;9.140;2024-02-23T05:42:51;4.57;;;1.10;;
4636;SDS011;2331;48.806;9.140;2024-02-23T05:45:18;3.25;;;0.85;;
4636;SDS011;2331;48.806;9.140;2024-02-23T05:47:45;4.22;;;0.65;;
4636;SDS011;2331;48.806;9.140;2024-02-23T05:50:13;5.60;;;0.95;;
4636;SDS011;2331;48.806;9.140;2024-02-23T05:52:39;3.10;;;1.05;;
4636;SDS011;2331;48.806;9.140;2024-02-23T05:55:06;2.10;;;1.05;;
4636;SDS011;2331;48.806;9.140;2024-02-23T05:57:33;2.60;;;1.00;;
4636;SDS011;2331;48.806;9.140;2024-02-23T06:00:00;2.10;;;0.90;;
4636;SDS011;2331;48.806;9.140;2024-02-23T06:02:27;4.00;;;1.10;;
4636;SDS011;2331;48.806;9.140;2024-02-23T06:04:54;1.45;;;0.60;;
4636;SDS011;2331;48.806;9.140;2024-02-23T06:07:21;2.75;;;1.13;;
4636;SDS011;2331;48.806;9.140;2024-02-23T06:09:53;3.63;;;0.82;;
4636;SDS011;2331;48.806;9.140;2024-02-23T06:12:20;2.90;;;0.88;;
4636;SDS011;2331;48.806;9.140;2024-02-23T06:14:47;2.22;;;1.20;;
4636;SDS011;2331;48.806;9.140;2024-02-23T06:17:14;3.45;;;1.85;;
4636;SDS011;2331;48.806;9.140;2024-02-23T06:19:41;3.47;;;1.70;;
4636;SDS011;2331;48.806;9.140;2024-02-23T06:22:07;2.88;;;1.25;;
4636;SDS011;2331;48.806;9.140;2024-02-23T06:24:36;2.85;;;1.20;;
4636;SDS011;2331;48.806;9.140;2024-02-23T06:27:03;3.85;;;1.98;;
4636;SDS011;2331;48.806;9.140;2024-02-23T06:29:30;6.53;;;1.48;;
4636;SDS011;2331;48.806;9.140;2024-02-23T06:31:56;3.05;;;1.30;;
4636;SDS011;2331;48.806;9.140;2024-02-23T06:34:23;10.32;;;1.50;;
4636;SDS011;2331;48.806;9.140;2024-02-23T06:36:50;2.35;;;1.00;;
4636;SDS011;2331;48.806;9.140;2024-02-23T06:39:16;1.52;;;0.95;;
4636;SDS011;2331;48.806;9.140;2024-02-23T06:41:46;2.90;;;1.30;;
4636;SDS011;2331;48.806;9.140;2024-02-23T06:44:12;2.47;;;0.70;;
4636;SDS011;2331;48.806;9.140;2024-02-23T06:46:39;3.38;;;1.08;;
4636;SDS011;2331;48.806;9.140;2024-02-23T06:49:06;2.70;;;1.23;;
4636;SDS011;2331;48.806;9.140;2024-02-23T06:51:33;2.58;;;1.20;;
4636;SDS011;2331;48.806;9.140;2024-02-23T06:54:00;2.20;;;0.90;;
4636;SDS011;2331;48.806;9.140;2024-02-23T06:56:28;3.50;;;0.93;;
4636;SDS011;2331;48.806;9.140;2024-02-23T06:58:56;3.75;;;1.40;;
4636;SDS011;2331;48.806;9.140;2024-02-23T07:01:23;1.20;;;0.80;;
4636;SDS011;2331;48.806;9.140;2024-02-23T07:03:50;2.55;;;1.08;;
4636;SDS011;2331;48.806;9.140;2024-02-23T07:06:17;1.50;;;0.90;;
4636;SDS011;2331;48.806;9.140;2024-02-23T07:08:44;2.30;;;0.90;;
4636;SDS011;2331;48.806;9.140;2024-02-23T07:11:11;0.95;;;0.63;;
4636;SDS011;2331;48.806;9.140;2024-02-23T07:13:37;1.63;;;0.82;;
4636;SDS011;2331;48.806;9.140;2024-02-23T07:16:07;2.03;;;1.05;;
4636;SDS011;2331;48.806;9.140;2024-02-23T07:18:33;2.78;;;0.95;;
4636;SDS011;2331;48.806;9.140;2024-02-23T07:21:00;2.22;;;1.10;;
4636;SDS011;2331;48.806;9.140;2024-02-23T07:23:27;1.92;;;1.00;;
4636;SDS011;2331;48.806;9.140;2024-02-23T07:25:53;2.45;;;1.08;;
4636;SDS011;2331;48.806;9.140;2024-02-23T07:28:20;1.95;;;0.88;;
4636;SDS011;2331;48.806;9.140;2024-02-23T07:30:48;1.77;;;1.10;;
4636;SDS011;2331;48.806;9.140;2024-02-23T07:33:16;2.08;;;1.20;;
4636;SDS011;2331;48.806;9.140;2024-02-23T07:35:42;2.55;;;1.30;;
4636;SDS011;2331;48.806;9.140;2024-02-23T07:38:09;3.72;;;1.30;;
4636;SDS011;2331;48.806;9.140;2024-02-23T07:40:36;4.90;;;1.20;;
4636;SDS011;2331;48.806;9.140;2024-02-23T07:43:02;1.00;;;0.90;;
4636;SDS011;2331;48.806;9.140;2024-02-23T07:45:29;2.67;;;1.20;;
4636;SDS011;2331;48.806;9.140;2024-02-23T07:47:58;3.42;;;1.38;;
4636;SDS011;2331;48.806;9.140;2024-02-23T07:50:26;9.02;;;1.67;;
4636;SDS011;2331;48.806;9.140;2024-02-23T07:52:53;2.67;;;1.10;;
4636;SDS011;2331;48.806;9.140;2024-02-23T07:55:19;4.40;;;1.60;;
4636;SDS011;2331;48.806;9.140;2024-02-23T07:57:47;1.98;;;1.08;;
4636;SDS011;2331;48.806;9.140;2024-02-23T08:00:14;2.17;;;1.38;;
4636;SDS011;2331;48.806;9.140;2024-02-23T08:02:41;1.92;;;1.00;;
4636;SDS011;2331;48.806;9.140;2024-02-23T08:05:07;3.60;;;1.00;;
4636;SDS011;2331;48.806;9.140;2024-02-23T08:07:36;2.22;;;0.90;;
4636;SDS011;2331;48.806;9.140;2024-02-23T08:10:03;2.30;;;1.13;;
4636;SDS011;2331;48.806;9.140;2024-02-23T08:12:30;3.25;;;1.00;;
4636;SDS011;2331;48.806;9.140;2024-02-23T08:14:56;3.25;;;1.05;;
4636;SDS011;2331;48.806;9.140;2024-02-23T08:17:23;1.80;;;1.15;;
4636;SDS011;2331;48.806;9.140;2024-02-23T08:19:51;2.53;;;1.00;;
4636;SDS011;2331;48.806;9.140;2024-02-23T08:22:17;5.05;;;1.30;;
4636;SDS011;2331;48.806;9.140;2024-02-23T08:24:45;2.47;;;1.10;;
4636;SDS011;2331;48.806;9.140;2024-02-23T08:27:12;4.93;;;1.20;;
4636;SDS011;2331;48.806;9.140;2024-02-23T08:29:38;4.25;;;1.30;;
4636;SDS011;2331;48.806;9.140;2024-02-23T08:32:06;4.82;;;1.40;;
4636;SDS011;2331;48.806;9.140;2024-02-23T08:34:33;3.35;;;1.25;;
4636;SDS011;2331;48.806;9.140;2024-02-23T08:37:00;2.28;;;0.88;;
4636;SDS011;2331;48.806;9.140;2024-02-23T08:39:27;2.83;;;1.23;;
4636;SDS011;2331;48.806;9.140;2024-02-23T08:41:55;2.53;;;1.00;;
4636;SDS011;2331;48.806;9.140;2024-02-23T08:44:22;3.25;;;0.90;;
4636;SDS011;2331;48.806;9.140;2024-02-23T08:46:49;3.22;;;0.95;;
4636;SDS011;2331;48.806;9.140;2024-02-23T08:49:15;1.83;;;0.80;;
4636;SDS011;2331;48.806;9.140;2024-02-23T08:51:42;1.88;;;1.00;;
4636;SDS011;2331;48.806;9.140;2024-02-23T08:54:09;2.65;;;1.10;;
4636;SDS011;2331;48.806;9.140;2024-02-23T08:56:36;1.73;;;0.80;;
4636;SDS011;2331;48.806;9.140;2024-02-23T08:59:06;1.10;;;0.70;;
4636;SDS011;2331;48.806;9.140;2024-02-23T09:01:32;3.30;;;1.42;;
4636;SDS011;2331;48.806;9.140;2024-02-23T09:03:59;3.58;;;1.60;;
4636;SDS011;2331;48.806;9.140;2024-02-23T09:06:26;2.47;;;0.98;;
4636;SDS011;2331;48.806;9.140;2024-02-23T09:08:52;3.58;;;1.00;;
4636;SDS011;2331;48.806;9.140;2024-02-23T09:11:19;5.03;;;1.88;;
4636;SDS011;2331;48.806;9.140;2024-02-23T09:13:46;5.53;;;1.77;;
4636;SDS011;2331;48.806;9.140;2024-02-23T09:16:14;5.80;;;1.77;;
4636;SDS011;2331;48.806;9.140;2024-02-23T09:18:41;4.05;;;1.45;;
4636;SDS011;2331;48.806;9.140;2024-02-23T09:21:07;4.13;;;1.20;;
4636;SDS011;2331;48.806;9.140;2024-02-23T09:23:34;4.00;;;1.77;;
4636;SDS011;2331;48.806;9.140;2024-02-23T09:26:01;3.58;;;1.05;;
4636;SDS011;2331;48.806;9.140;2024-02-23T09:28:29;4.65;;;1.17;;
4636;SDS011;2331;48.806;9.140;2024-02-23T09:30:56;2.47;;;1.30;;
4636;SDS011;2331;48.806;9.140;2024-02-23T09:33:24;3.63;;;1.20;;
4636;SDS011;2331;48.806;9.140;2024-02-23T09:35:51;4.20;;;1.30;;
4636;SDS011;2331;48.806;9.140;2024-02-23T09:38:18;4.38;;;1.30;;
4636;SDS011;2331;48.806;9.140;2024-02-23T09:40:44;4.20;;;1.65;;
4636;SDS011;2331;48.806;9.140;2024-02-23T09:43:12;2.40;;;1.15;;
4636;SDS011;2331;48.806;9.140;2024-02-23T09:45:42;4.35;;;1.30;;
4636;SDS011;2331;48.806;9.140;2024-02-23T09:48:10;2.75;;;1.23;;
4636;SDS011;2331;48.806;9.140;2024-02-23T09:50:39;3.03;;;1.30;;
4636;SDS011;2331;48.806;9.140;2024-02-23T09:53:08;4.18;;;1.25;;
4636;SDS011;2331;48.806;9.140;2024-02-23T09:55:37;3.90;;;1.23;;
4636;SDS011;2331;48.806;9.140;2024-02-23T09:58:04;5.95;;;1.60;;
4636;SDS011;2331;48.806;9.140;2024-02-23T10:00:32;7.47;;;1.55;;
4636;SDS011;2331;48.806;9.140;2024-02-23T10:03:03;6.75;;;1.73;;
4636;SDS011;2331;48.806;9.140;2024-02-23T10:05:31;3.15;;;1.13;;
4636;SDS011;2331;48.806;9.140;2024-02-23T10:08:00;3.13;;;1.20;;
4636;SDS011;2331;48.806;9.140;2024-02-23T10:10:29;5.68;;;1.58;;
4636;SDS011;2331;48.806;9.140;2024-02-23T10:12:56;3.92;;;1.60;;
4636;SDS011;2331;48.806;9.140;2024-02-23T10:15:23;3.30;;;1.13;;
4636;SDS011;2331;48.806;9.140;2024-02-23T10:17:50;3.70;;;0.90;;
4636;SDS011;2331;48.806;9.140;2024-02-23T10:20:19;4.85;;;1.23;;
4636;SDS011;2331;48.806;9.140;2024-02-23T10:22:45;6.57;;;1.20;;
4636;SDS011;2331;48.806;9.140;2024-02-23T10:25:14;5.82;;;1.50;;
4636;SDS011;2331;48.806;9.140;2024-02-23T10:27:41;3.95;;;0.90;;
4636;SDS011;2331;48.806;9.140;2024-02-23T10:30:08;3.75;;;1.30;;
4636;SDS011;2331;48.806;9.140;2024-02-23T10:32:36;7.60;;;1.48;;
4636;SDS011;2331;48.806;9.140;2024-02-23T10:35:06;5.40;;;1.65;;
4636;SDS011;2331;48.806;9.140;2024-02-23T10:37:36;3.65;;;1.10;;
4636;SDS011;2331;48.806;9.140;2024-02-23T10:40:04;3.20;;;1.20;;
4636;SDS011;2331;48.806;9.140;2024-02-23T10:42:37;4.75;;;1.00;;
4636;SDS011;2331;48.806;9.140;2024-02-23T10:45:06;5.20;;;1.58;;
4636;SDS011;2331;48.806;9.140;2024-02-23T10:47:33;2.40;;;1.27;;
4636;SDS011;2331;48.806;9.140;2024-02-23T10:50:01;4.40;;;1.52;;
4636;SDS011;2331;48.806;9.140;2024-02-23T10:52:29;4.32;;;1.30;;
4636;SDS011;2331;48.806;9.140;2024-02-23T10:54:57;3.25;;;1.48;;
4636;SDS011;2331;48.806;9.140;2024-02-23T10:57:29;3.60;;;1.02;;
4636;SDS011;2331;48.806;9.140;2024-02-23T10:59:58;3.55;;;1.25;;
4636;SDS011;2331;48.806;9.140;2024-02-23T11:02:24;4.93;;;1.30;;
4636;SDS011;2331;48.806;9.140;2024-02-23T11:04:54;4.22;;;1.27;;
4636;SDS011;2331;48.806;9.140;2024-02-23T11:07:23;11.27;;;2.25;;
4636;SDS011;2331;48.806;9.140;2024-02-23T11:09:53;2.47;;;1.00;;
4636;SDS011;2331;48.806;9.140;2024-02-23T11:12:23;3.88;;;1.20;;
4636;SDS011;2331;48.806;9.140;2024-02-23T11:14:51;5.15;;;1.40;;
4636;SDS011;2331;48.806;9.140;2024-02-23T11:17:25;7.38;;;1.08;;
4636;SDS011;2331;48.806;9.140;2024-02-23T11:19:54;4.20;;;1.35;;
4636;SDS011;2331;48.806;9.140;2024-02-23T11:22:24;2.83;;;1.10;;
4636;SDS011;2331;48.806;9.140;2024-02-23T11:24:52;3.00;;;1.20;;
4636;SDS011;2331;48.806;9.140;2024-02-23T11:27:19;4.00;;;1.75;;
4636;SDS011;2331;48.806;9.140;2024-02-23T11:29:46;5.05;;;1.42;;
4636;SDS011;2331;48.806;9.140;2024-02-23T11:32:14;4.72;;;1.33;;
4636;SDS011;2331;48.806;9.140;2024-02-23T11:34:52;5.53;;;1.70;;
4636;SDS011;2331;48.806;9.140;2024-02-23T11:37:20;5.68;;;1.50;;
4636;SDS011;2331;48.806;9.140;2024-02-23T11:39:47;6.25;;;1.90;;
4636;SDS011;2331;48.806;9.140;2024-02-23T11:42:15;5.28;;;1.20;;
4636;SDS011;2331;48.806;9.140;2024-02-23T11:44:42;8.05;;;1.95;;
4636;SDS011;2331;48.806;9.140;2024-02-23T11:47:09;4.00;;;1.40;;
4636;SDS011;2331;48.806;9.140;2024-02-23T11:49:35;2.88;;;0.90;;
4636;SDS011;2331;48.806;9.140;2024-02-23T11:52:04;3.25;;;1.10;;
4636;SDS011;2331;48.806;9.140;2024-02-23T11:54:31;5.25;;;1.73;;
4636;SDS011;2331;48.806;9.140;2024-02-23T11:56:57;6.30;;;1.48;;
4636;SDS011;2331;48.806;9.140;2024-02-23T11:59:25;6.03;;;1.25;;
4636;SDS011;2331;48.806;9.140;2024-02-23T12:01:52;4.00;;;1.45;;
4636;SDS011;2331;48.806;9.140;2024-02-23T12:04:18;8.80;;;1.42;;
4636;SDS011;2331;48.806;9.140;2024-02-23T12:06:45;4.60;;;1.30;;
4636;SDS011;2331;48.806;9.140;2024-02-23T12:09:14;8.00;;;1.23;;
4636;SDS011;2331;48.806;9.140;2024-02-23T12:11:41;3.35;;;1.20;;
4636;SDS011;2331;48.806;9.140;2024-02-23T12:14:11;4.22;;;1.60;;
4636;SDS011;2331;48.806;9.140;2024-02-23T12:16:46;5.20;;;1.40;;
4636;SDS011;2331;48.806;9.140;2024-02-23T12:19:26;5.10;;;1.30;;
4636;SDS011;2331;48.806;9.140;2024-02-23T12:21:59;6.70;;;1.52;;
4636;SDS011;2331;48.806;9.140;2024-02-23T12:24:29;4.70;;;1.33;;
4636;SDS011;2331;48.806;9.140;2024-02-23T12:26:56;7.10;;;1.88;;
4636;SDS011;2331;48.806;9.140;2024-02-23T12:29:23;4.80;;;1.35;;
4636;SDS011;2331;48.806;9.140;2024-02-23T12:31:50;5.13;;;1.50;;
4636;SDS011;2331;48.806;9.140;2024-02-23T12:34:17;4.90;;;1.40;;
4636;SDS011;2331;48.806;9.140;2024-02-23T12:36:45;4.05;;;1.40;;
4636;SDS011;2331;48.806;9.140;2024-02-23T12:39:12;5.55;;;1.83;;
4636;SDS011;2331;48.806;9.140;2024-02-23T12:41:40;3.75;;;1.40;;
4636;SDS011;2331;48.806;9.140;2024-02-23T12:44:07;2.78;;;1.10;;
4636;SDS011;2331;48.806;9.140;2024-02-23T12:46:34;5.15;;;1.70;;
4636;SDS011;2331;48.806;9.140;2024-02-23T12:49:01;5.85;;;1.60;;
4636;SDS011;2331;48.806;9.140;2024-02-23T12:51:28;5.68;;;1.42;;
4636;SDS011;2331;48.806;9.140;2024-02-23T12:53:54;7.43;;;1.63;;
4636;SDS011;2331;48.806;9.140;2024-02-23T12:56:22;8.98;;;2.30;;
4636;SDS011;2331;48.806;9.140;2024-02-23T12:58:51;5.40;;;1.42;;
4636;SDS011;2331;48.806;9.140;2024-02-23T13:01:19;5.80;;;1.42;;
4636;SDS011;2331;48.806;9.140;2024-02-23T13:03:46;5.03;;;1.80;;
4636;SDS011;2331;48.806;9.140;2024-02-23T13:06:13;6.13;;;1.80;;
4636;SDS011;2331;48.806;9.140;2024-02-23T13:08:40;6.15;;;1.85;;
4636;SDS011;2331;48.806;9.140;2024-02-23T13:11:07;6.45;;;1.50;;
4636;SDS011;2331;48.806;9.140;2024-02-23T13:13:34;4.68;;;1.50;;
4636;SDS011;2331;48.806;9.140;2024-02-23T13:16:03;5.10;;;1.10;;
4636;SDS011;2331;48.806;9.140;2024-02-23T13:18:30;10.55;;;1.40;;
4636;SDS011;2331;48.806;9.140;2024-02-23T13:20:57;7.53;;;1.75;;
4636;SDS011;2331;48.806;9.140;2024-02-23T13:23:23;4.03;;;1.67;;
4636;SDS011;2331;48.806;9.140;2024-02-23T13:25:50;4.85;;;1.35;;
4636;SDS011;2331;48.806;9.140;2024-02-23T13:28:17;5.97;;;1.40;;
4636;SDS011;2331;48.806;9.140;2024-02-23T13:30:44;6.15;;;1.65;;
4636;SDS011;2331;48.806;9.140;2024-02-23T13:33:12;7.03;;;1.52;;
4636;SDS011;2331;48.806;9.140;2024-02-23T13:35:39;5.90;;;2.22;;
4636;SDS011;2331;48.806;9.140;2024-02-23T13:38:06;4.80;;;1.35;;
4636;SDS011;2331;48.806;9.140;2024-02-23T13:40:34;6.05;;;1.45;;
4636;SDS011;2331;48.806;9.140;2024-02-23T13:43:00;6.20;;;1.40;;
4636;SDS011;2331;48.806;9.140;2024-02-23T13:45:27;5.75;;;1.88;;
4636;SDS011;2331;48.806;9.140;2024-02-23T13:47:57;5.80;;;1.60;;
4636;SDS011;2331;48.806;9.140;2024-02-23T13:50:27;4.53;;;1.45;;
4636;SDS011;2331;48.806;9.140;2024-02-23T13:52:54;4.38;;;1.42;;
4636;SDS011;2331;48.806;9.140;2024-02-23T13:55:21;8.85;;;1.85;;
4636;SDS011;2331;48.806;9.140;2024-02-23T13:57:47;4.85;;;1.75;;
4636;SDS011;2331;48.806;9.140;2024-02-23T14:00:15;4.28;;;1.73;;
4636;SDS011;2331;48.806;9.140;2024-02-23T14:02:43;7.07;;;1.77;;
4636;SDS011;2331;48.806;9.140;2024-02-23T14:05:11;6.05;;;1.48;;
4636;SDS011;2331;48.806;9.140;2024-02-23T14:07:39;5.00;;;1.90;;
4636;SDS011;2331;48.806;9.140;2024-02-23T14:10:06;3.85;;;1.35;;
4636;SDS011;2331;48.806;9.140;2024-02-23T14:12:34;5.43;;;1.55;;
4636;SDS011;2331;48.806;9.140;2024-02-23T14:15:00;7.65;;;2.05;;
4636;SDS011;2331;48.806;9.140;2024-02-23T14:17:27;5.72;;;1.60;;
4636;SDS011;2331;48.806;9.140;2024-02-23T14:19:54;4.22;;;1.30;;
4636;SDS011;2331;48.806;9.140;2024-02-23T14:22:21;7.38;;;1.95;;
4636;SDS011;2331;48.806;9.140;2024-02-23T14:24:49;5.65;;;1.70;;
4636;SDS011;2331;48.806;9.140;2024-02-23T14:27:16;3.38;;;1.42;;
4636;SDS011;2331;48.806;9.140;2024-02-23T14:29:43;4.57;;;1.40;;
4636;SDS011;2331;48.806;9.140;2024-02-23T14:32:10;4.85;;;1.75;;
4636;SDS011;2331;48.806;9.140;2024-02-23T14:34:41;3.40;;;1.52;;
4636;SDS011;2331;48.806;9.140;2024-02-23T14:37:08;5.88;;;1.70;;
4636;SDS011;2331;48.806;9.140;2024-02-23T14:39:35;6.28;;;1.55;;
4636;SDS011;2331;48.806;9.140;2024-02-23T14:42:03;6.15;;;1.75;;
4636;SDS011;2331;48.806;9.140;2024-02-23T14:44:31;3.38;;;1.27;;
4636;SDS011;2331;48.806;9.140;2024-02-23T14:46:57;4.72;;;1.85;;
4636;SDS011;2331;48.806;9.140;2024-02-23T14:49:24;6.97;;;1.80;;
4636;SDS011;2331;48.806;9.140;2024-02-23T14:51:51;5.20;;;1.65;;
4636;SDS011;2331;48.806;9.140;2024-02-23T14:54:18;5.03;;;1.58;;
4636;SDS011;2331;48.806;9.140;2024-02-23T14:56:44;4.57;;;1.75;;
4636;SDS011;2331;48.806;9.140;2024-02-23T14:59:13;4.13;;;1.55;;
4636;SDS011;2331;48.806;9.140;2024-02-23T15:01:40;6.25;;;1.25;;
4636;SDS011;2331;48.806;9.140;2024-02-23T15:04:06;7.38;;;2.47;;
4636;SDS011;2331;48.806;9.140;2024-02-23T15:06:34;4.35;;;1.92;;
4636;SDS011;2331;48.806;9.140;2024-02-23T15:09:01;8.90;;;2.22;;
4636;SDS011;2331;48.806;9.140;2024-02-23T15:11:28;7.03;;;2.50;;
4636;SDS011;2331;48.806;9.140;2024-02-23T15:13:55;7.80;;;2.42;;
4636;SDS011;2331;48.806;9.140;2024-02-23T15:16:24;4.63;;;1.60;;